<?xml version="1.0" encoding="UTF-8" standalone="no" ?>
<gpx xmlns="http://www.topografix.com/GPX/1/1" xmlns:xsi="http://www.w3.org/2001/XMLSchema-instance" xsi:schemaLocation="http://www.topografix.com/GPX/1/1 http://www.topografix.com/GPX/1/1/gpx.xsd" version="1.1" creator="VisuGPX - https://www.visugpx.com">
  <metadata>
    <name>Course à pied le midi</name>
  </metadata>
  <trk>
    <name><![CDATA[Course à pied le midi_1]]></name>
    <trkseg>
      <trkpt lat="48.71149" lon="7.16283">
        <ele>317.2</ele>
        <time>2023-11-03T11:24:20Z</time>
      </trkpt>
      <trkpt lat="48.7115" lon="7.16279">
        <ele>317.3</ele>
        <time>2023-11-03T11:24:21Z</time>
      </trkpt>
      <trkpt lat="48.71146" lon="7.16272">
        <ele>317.4</ele>
        <time>2023-11-03T11:24:23Z</time>
      </trkpt>
      <trkpt lat="48.71128" lon="7.16254">
        <ele>317.8</ele>
        <time>2023-11-03T11:24:29Z</time>
      </trkpt>
      <trkpt lat="48.71112" lon="7.16239">
        <ele>318</ele>
        <time>2023-11-03T11:24:34Z</time>
      </trkpt>
      <trkpt lat="48.71096" lon="7.16219">
        <ele>318.1</ele>
        <time>2023-11-03T11:24:40Z</time>
      </trkpt>
      <trkpt lat="48.71091" lon="7.1619">
        <ele>317.6</ele>
        <time>2023-11-03T11:24:46Z</time>
      </trkpt>
      <trkpt lat="48.71095" lon="7.16159">
        <ele>316.6</ele>
        <time>2023-11-03T11:24:52Z</time>
      </trkpt>
      <trkpt lat="48.711" lon="7.16128">
        <ele>316</ele>
        <time>2023-11-03T11:24:58Z</time>
      </trkpt>
      <trkpt lat="48.71106" lon="7.16105">
        <ele>315.9</ele>
        <time>2023-11-03T11:25:03Z</time>
      </trkpt>
      <trkpt lat="48.71123" lon="7.16112">
        <ele>315.8</ele>
        <time>2023-11-03T11:25:09Z</time>
      </trkpt>
      <trkpt lat="48.71141" lon="7.16119">
        <ele>315.8</ele>
        <time>2023-11-03T11:25:14Z</time>
      </trkpt>
      <trkpt lat="48.7116" lon="7.16115">
        <ele>316.8</ele>
        <time>2023-11-03T11:25:21Z</time>
      </trkpt>
      <trkpt lat="48.7118" lon="7.16114">
        <ele>318.4</ele>
        <time>2023-11-03T11:25:28Z</time>
      </trkpt>
      <trkpt lat="48.71198" lon="7.16123">
        <ele>319.3</ele>
        <time>2023-11-03T11:25:34Z</time>
      </trkpt>
      <trkpt lat="48.71214" lon="7.16136">
        <ele>319.8</ele>
        <time>2023-11-03T11:25:40Z</time>
      </trkpt>
      <trkpt lat="48.71233" lon="7.16149">
        <ele>319.9</ele>
        <time>2023-11-03T11:25:46Z</time>
      </trkpt>
      <trkpt lat="48.7125" lon="7.16161">
        <ele>320</ele>
        <time>2023-11-03T11:25:52Z</time>
      </trkpt>
      <trkpt lat="48.71268" lon="7.16174">
        <ele>320.5</ele>
        <time>2023-11-03T11:25:58Z</time>
      </trkpt>
      <trkpt lat="48.71286" lon="7.16186">
        <ele>321.2</ele>
        <time>2023-11-03T11:26:04Z</time>
      </trkpt>
      <trkpt lat="48.71305" lon="7.16188">
        <ele>321.7</ele>
        <time>2023-11-03T11:26:10Z</time>
      </trkpt>
      <trkpt lat="48.71308" lon="7.16191">
        <ele>321.8</ele>
        <time>2023-11-03T11:26:11Z</time>
      </trkpt>
      <trkpt lat="48.71319" lon="7.16213">
        <ele>320</ele>
        <time>2023-11-03T11:26:16Z</time>
      </trkpt>
      <trkpt lat="48.71335" lon="7.16228">
        <ele>318</ele>
        <time>2023-11-03T11:26:21Z</time>
      </trkpt>
      <trkpt lat="48.71354" lon="7.16241">
        <ele>316.7</ele>
        <time>2023-11-03T11:26:27Z</time>
      </trkpt>
      <trkpt lat="48.71371" lon="7.16254">
        <ele>315.6</ele>
        <time>2023-11-03T11:26:33Z</time>
      </trkpt>
      <trkpt lat="48.7139" lon="7.16266">
        <ele>314.1</ele>
        <time>2023-11-03T11:26:39Z</time>
      </trkpt>
      <trkpt lat="48.71406" lon="7.16279">
        <ele>312.4</ele>
        <time>2023-11-03T11:26:45Z</time>
      </trkpt>
      <trkpt lat="48.71425" lon="7.16291">
        <ele>311</ele>
        <time>2023-11-03T11:26:51Z</time>
      </trkpt>
      <trkpt lat="48.71446" lon="7.16297">
        <ele>310.4</ele>
        <time>2023-11-03T11:26:57Z</time>
      </trkpt>
      <trkpt lat="48.71465" lon="7.16301">
        <ele>309.9</ele>
        <time>2023-11-03T11:27:03Z</time>
      </trkpt>
      <trkpt lat="48.71484" lon="7.16308">
        <ele>309.3</ele>
        <time>2023-11-03T11:27:10Z</time>
      </trkpt>
      <trkpt lat="48.71504" lon="7.16314">
        <ele>308.7</ele>
        <time>2023-11-03T11:27:17Z</time>
      </trkpt>
      <trkpt lat="48.71524" lon="7.16313">
        <ele>308.2</ele>
        <time>2023-11-03T11:27:24Z</time>
      </trkpt>
      <trkpt lat="48.71543" lon="7.16312">
        <ele>307.7</ele>
        <time>2023-11-03T11:27:31Z</time>
      </trkpt>
      <trkpt lat="48.71564" lon="7.16313">
        <ele>307.3</ele>
        <time>2023-11-03T11:27:38Z</time>
      </trkpt>
      <trkpt lat="48.71584" lon="7.16313">
        <ele>306.6</ele>
        <time>2023-11-03T11:27:44Z</time>
      </trkpt>
      <trkpt lat="48.71604" lon="7.16318">
        <ele>305.5</ele>
        <time>2023-11-03T11:27:50Z</time>
      </trkpt>
      <trkpt lat="48.71624" lon="7.16326">
        <ele>305</ele>
        <time>2023-11-03T11:27:56Z</time>
      </trkpt>
      <trkpt lat="48.71644" lon="7.16333">
        <ele>304.5</ele>
        <time>2023-11-03T11:28:02Z</time>
      </trkpt>
      <trkpt lat="48.71662" lon="7.16335">
        <ele>303.8</ele>
        <time>2023-11-03T11:28:08Z</time>
      </trkpt>
      <trkpt lat="48.71683" lon="7.16333">
        <ele>302.9</ele>
        <time>2023-11-03T11:28:15Z</time>
      </trkpt>
      <trkpt lat="48.71704" lon="7.1633">
        <ele>302.4</ele>
        <time>2023-11-03T11:28:21Z</time>
      </trkpt>
      <trkpt lat="48.71722" lon="7.16327">
        <ele>301.9</ele>
        <time>2023-11-03T11:28:27Z</time>
      </trkpt>
      <trkpt lat="48.71742" lon="7.16325">
        <ele>301.2</ele>
        <time>2023-11-03T11:28:33Z</time>
      </trkpt>
      <trkpt lat="48.71762" lon="7.16314">
        <ele>301.1</ele>
        <time>2023-11-03T11:28:39Z</time>
      </trkpt>
      <trkpt lat="48.7178" lon="7.16302">
        <ele>301.5</ele>
        <time>2023-11-03T11:28:45Z</time>
      </trkpt>
      <trkpt lat="48.71799" lon="7.16303">
        <ele>300.2</ele>
        <time>2023-11-03T11:28:51Z</time>
      </trkpt>
      <trkpt lat="48.71819" lon="7.16311">
        <ele>299.2</ele>
        <time>2023-11-03T11:28:57Z</time>
      </trkpt>
      <trkpt lat="48.71838" lon="7.16326">
        <ele>298.3</ele>
        <time>2023-11-03T11:29:03Z</time>
      </trkpt>
      <trkpt lat="48.71854" lon="7.16341">
        <ele>297.9</ele>
        <time>2023-11-03T11:29:08Z</time>
      </trkpt>
      <trkpt lat="48.71871" lon="7.16358">
        <ele>298</ele>
        <time>2023-11-03T11:29:14Z</time>
      </trkpt>
      <trkpt lat="48.71887" lon="7.16378">
        <ele>298.1</ele>
        <time>2023-11-03T11:29:20Z</time>
      </trkpt>
      <trkpt lat="48.71902" lon="7.16394">
        <ele>298.1</ele>
        <time>2023-11-03T11:29:26Z</time>
      </trkpt>
      <trkpt lat="48.71919" lon="7.1641">
        <ele>298.3</ele>
        <time>2023-11-03T11:29:32Z</time>
      </trkpt>
      <trkpt lat="48.71937" lon="7.16426">
        <ele>298.5</ele>
        <time>2023-11-03T11:29:38Z</time>
      </trkpt>
      <trkpt lat="48.71954" lon="7.16438">
        <ele>298.4</ele>
        <time>2023-11-03T11:29:44Z</time>
      </trkpt>
      <trkpt lat="48.71969" lon="7.16458">
        <ele>297.4</ele>
        <time>2023-11-03T11:29:50Z</time>
      </trkpt>
      <trkpt lat="48.71983" lon="7.16482">
        <ele>296.3</ele>
        <time>2023-11-03T11:29:56Z</time>
      </trkpt>
      <trkpt lat="48.71996" lon="7.16502">
        <ele>295.3</ele>
        <time>2023-11-03T11:30:01Z</time>
      </trkpt>
      <trkpt lat="48.7201" lon="7.16522">
        <ele>294.4</ele>
        <time>2023-11-03T11:30:06Z</time>
      </trkpt>
      <trkpt lat="48.72023" lon="7.16547">
        <ele>293.4</ele>
        <time>2023-11-03T11:30:12Z</time>
      </trkpt>
      <trkpt lat="48.72034" lon="7.16569">
        <ele>292.7</ele>
        <time>2023-11-03T11:30:17Z</time>
      </trkpt>
      <trkpt lat="48.72045" lon="7.16591">
        <ele>292.1</ele>
        <time>2023-11-03T11:30:22Z</time>
      </trkpt>
      <trkpt lat="48.72057" lon="7.16615">
        <ele>291.1</ele>
        <time>2023-11-03T11:30:27Z</time>
      </trkpt>
      <trkpt lat="48.72069" lon="7.16639">
        <ele>290.1</ele>
        <time>2023-11-03T11:30:33Z</time>
      </trkpt>
      <trkpt lat="48.72084" lon="7.1666">
        <ele>289.2</ele>
        <time>2023-11-03T11:30:39Z</time>
      </trkpt>
      <trkpt lat="48.72098" lon="7.16684">
        <ele>288.2</ele>
        <time>2023-11-03T11:30:45Z</time>
      </trkpt>
      <trkpt lat="48.7211" lon="7.16708">
        <ele>287.2</ele>
        <time>2023-11-03T11:30:51Z</time>
      </trkpt>
      <trkpt lat="48.72122" lon="7.16729">
        <ele>286.4</ele>
        <time>2023-11-03T11:30:56Z</time>
      </trkpt>
      <trkpt lat="48.72137" lon="7.16753">
        <ele>285.7</ele>
        <time>2023-11-03T11:31:02Z</time>
      </trkpt>
      <trkpt lat="48.72155" lon="7.16765">
        <ele>285.4</ele>
        <time>2023-11-03T11:31:08Z</time>
      </trkpt>
      <trkpt lat="48.72175" lon="7.16777">
        <ele>285.2</ele>
        <time>2023-11-03T11:31:15Z</time>
      </trkpt>
      <trkpt lat="48.72192" lon="7.16789">
        <ele>285.2</ele>
        <time>2023-11-03T11:31:21Z</time>
      </trkpt>
      <trkpt lat="48.72209" lon="7.16798">
        <ele>285.6</ele>
        <time>2023-11-03T11:31:27Z</time>
      </trkpt>
      <trkpt lat="48.72228" lon="7.16798">
        <ele>286.7</ele>
        <time>2023-11-03T11:31:33Z</time>
      </trkpt>
      <trkpt lat="48.72247" lon="7.16791">
        <ele>288.8</ele>
        <time>2023-11-03T11:31:40Z</time>
      </trkpt>
      <trkpt lat="48.72265" lon="7.16784">
        <ele>291.2</ele>
        <time>2023-11-03T11:31:47Z</time>
      </trkpt>
      <trkpt lat="48.72283" lon="7.1679">
        <ele>293.7</ele>
        <time>2023-11-03T11:31:54Z</time>
      </trkpt>
      <trkpt lat="48.72298" lon="7.16806">
        <ele>296</ele>
        <time>2023-11-03T11:32:01Z</time>
      </trkpt>
      <trkpt lat="48.72313" lon="7.16826">
        <ele>298.3</ele>
        <time>2023-11-03T11:32:09Z</time>
      </trkpt>
      <trkpt lat="48.72327" lon="7.16845">
        <ele>300.4</ele>
        <time>2023-11-03T11:32:16Z</time>
      </trkpt>
      <trkpt lat="48.72343" lon="7.16864">
        <ele>302.4</ele>
        <time>2023-11-03T11:32:24Z</time>
      </trkpt>
      <trkpt lat="48.72358" lon="7.16881">
        <ele>304</ele>
        <time>2023-11-03T11:32:31Z</time>
      </trkpt>
      <trkpt lat="48.72375" lon="7.16893">
        <ele>305.3</ele>
        <time>2023-11-03T11:32:38Z</time>
      </trkpt>
      <trkpt lat="48.72391" lon="7.16904">
        <ele>306.3</ele>
        <time>2023-11-03T11:32:44Z</time>
      </trkpt>
      <trkpt lat="48.72408" lon="7.16914">
        <ele>307.3</ele>
        <time>2023-11-03T11:32:50Z</time>
      </trkpt>
      <trkpt lat="48.72428" lon="7.16922">
        <ele>308.5</ele>
        <time>2023-11-03T11:32:57Z</time>
      </trkpt>
      <trkpt lat="48.72447" lon="7.1693">
        <ele>309.6</ele>
        <time>2023-11-03T11:33:04Z</time>
      </trkpt>
      <trkpt lat="48.72468" lon="7.16936">
        <ele>310.6</ele>
        <time>2023-11-03T11:33:11Z</time>
      </trkpt>
      <trkpt lat="48.72486" lon="7.1694">
        <ele>311.3</ele>
        <time>2023-11-03T11:33:17Z</time>
      </trkpt>
      <trkpt lat="48.72507" lon="7.16946">
        <ele>312.3</ele>
        <time>2023-11-03T11:33:24Z</time>
      </trkpt>
      <trkpt lat="48.72525" lon="7.1695">
        <ele>313.3</ele>
        <time>2023-11-03T11:33:30Z</time>
      </trkpt>
      <trkpt lat="48.72544" lon="7.16956">
        <ele>314.2</ele>
        <time>2023-11-03T11:33:37Z</time>
      </trkpt>
      <trkpt lat="48.72565" lon="7.16963">
        <ele>314.9</ele>
        <time>2023-11-03T11:33:44Z</time>
      </trkpt>
      <trkpt lat="48.72583" lon="7.16972">
        <ele>315.4</ele>
        <time>2023-11-03T11:33:50Z</time>
      </trkpt>
      <trkpt lat="48.72602" lon="7.16981">
        <ele>315.6</ele>
        <time>2023-11-03T11:33:56Z</time>
      </trkpt>
      <trkpt lat="48.72621" lon="7.16992">
        <ele>315.9</ele>
        <time>2023-11-03T11:34:02Z</time>
      </trkpt>
      <trkpt lat="48.72639" lon="7.17">
        <ele>316.2</ele>
        <time>2023-11-03T11:34:08Z</time>
      </trkpt>
      <trkpt lat="48.72656" lon="7.17008">
        <ele>316.5</ele>
        <time>2023-11-03T11:34:14Z</time>
      </trkpt>
      <trkpt lat="48.72675" lon="7.17017">
        <ele>316.7</ele>
        <time>2023-11-03T11:34:20Z</time>
      </trkpt>
      <trkpt lat="48.72693" lon="7.17025">
        <ele>317</ele>
        <time>2023-11-03T11:34:26Z</time>
      </trkpt>
      <trkpt lat="48.72711" lon="7.17035">
        <ele>317.1</ele>
        <time>2023-11-03T11:34:32Z</time>
      </trkpt>
      <trkpt lat="48.72729" lon="7.17045">
        <ele>317.4</ele>
        <time>2023-11-03T11:34:38Z</time>
      </trkpt>
      <trkpt lat="48.72747" lon="7.17056">
        <ele>317.8</ele>
        <time>2023-11-03T11:34:44Z</time>
      </trkpt>
      <trkpt lat="48.72765" lon="7.17069">
        <ele>318.1</ele>
        <time>2023-11-03T11:34:50Z</time>
      </trkpt>
      <trkpt lat="48.72783" lon="7.17084">
        <ele>318.3</ele>
        <time>2023-11-03T11:34:56Z</time>
      </trkpt>
      <trkpt lat="48.728" lon="7.171">
        <ele>318.5</ele>
        <time>2023-11-03T11:35:02Z</time>
      </trkpt>
      <trkpt lat="48.72818" lon="7.17116">
        <ele>318.6</ele>
        <time>2023-11-03T11:35:08Z</time>
      </trkpt>
      <trkpt lat="48.72836" lon="7.17133">
        <ele>318.8</ele>
        <time>2023-11-03T11:35:14Z</time>
      </trkpt>
      <trkpt lat="48.72853" lon="7.17149">
        <ele>319.2</ele>
        <time>2023-11-03T11:35:20Z</time>
      </trkpt>
      <trkpt lat="48.72869" lon="7.17164">
        <ele>319.6</ele>
        <time>2023-11-03T11:35:26Z</time>
      </trkpt>
      <trkpt lat="48.72886" lon="7.17178">
        <ele>320.2</ele>
        <time>2023-11-03T11:35:32Z</time>
      </trkpt>
      <trkpt lat="48.72902" lon="7.17193">
        <ele>320.9</ele>
        <time>2023-11-03T11:35:38Z</time>
      </trkpt>
      <trkpt lat="48.72919" lon="7.17207">
        <ele>321.5</ele>
        <time>2023-11-03T11:35:44Z</time>
      </trkpt>
      <trkpt lat="48.72936" lon="7.17221">
        <ele>321.9</ele>
        <time>2023-11-03T11:35:50Z</time>
      </trkpt>
      <trkpt lat="48.72954" lon="7.17233">
        <ele>322.5</ele>
        <time>2023-11-03T11:35:56Z</time>
      </trkpt>
      <trkpt lat="48.72972" lon="7.17246">
        <ele>323.2</ele>
        <time>2023-11-03T11:36:02Z</time>
      </trkpt>
      <trkpt lat="48.72991" lon="7.17259">
        <ele>323.8</ele>
        <time>2023-11-03T11:36:08Z</time>
      </trkpt>
      <trkpt lat="48.73009" lon="7.17273">
        <ele>324.3</ele>
        <time>2023-11-03T11:36:14Z</time>
      </trkpt>
      <trkpt lat="48.73026" lon="7.17289">
        <ele>324.8</ele>
        <time>2023-11-03T11:36:20Z</time>
      </trkpt>
      <trkpt lat="48.73043" lon="7.17307">
        <ele>325.2</ele>
        <time>2023-11-03T11:36:26Z</time>
      </trkpt>
      <trkpt lat="48.7306" lon="7.17326">
        <ele>325.8</ele>
        <time>2023-11-03T11:36:32Z</time>
      </trkpt>
      <trkpt lat="48.73077" lon="7.17343">
        <ele>326.3</ele>
        <time>2023-11-03T11:36:38Z</time>
      </trkpt>
      <trkpt lat="48.73095" lon="7.1736">
        <ele>326.9</ele>
        <time>2023-11-03T11:36:44Z</time>
      </trkpt>
      <trkpt lat="48.73112" lon="7.17378">
        <ele>327.4</ele>
        <time>2023-11-03T11:36:50Z</time>
      </trkpt>
      <trkpt lat="48.73127" lon="7.17397">
        <ele>327.8</ele>
        <time>2023-11-03T11:36:56Z</time>
      </trkpt>
      <trkpt lat="48.73141" lon="7.17419">
        <ele>328.3</ele>
        <time>2023-11-03T11:37:02Z</time>
      </trkpt>
      <trkpt lat="48.73154" lon="7.1744">
        <ele>328.8</ele>
        <time>2023-11-03T11:37:08Z</time>
      </trkpt>
      <trkpt lat="48.73168" lon="7.17462">
        <ele>329.1</ele>
        <time>2023-11-03T11:37:14Z</time>
      </trkpt>
      <trkpt lat="48.7318" lon="7.17483">
        <ele>329.6</ele>
        <time>2023-11-03T11:37:20Z</time>
      </trkpt>
      <trkpt lat="48.73195" lon="7.17501">
        <ele>330.1</ele>
        <time>2023-11-03T11:37:26Z</time>
      </trkpt>
      <trkpt lat="48.7321" lon="7.17519">
        <ele>330.8</ele>
        <time>2023-11-03T11:37:32Z</time>
      </trkpt>
      <trkpt lat="48.73226" lon="7.17535">
        <ele>331.2</ele>
        <time>2023-11-03T11:37:38Z</time>
      </trkpt>
      <trkpt lat="48.73237" lon="7.17551">
        <ele>331.6</ele>
        <time>2023-11-03T11:37:44Z</time>
      </trkpt>
      <trkpt lat="48.73227" lon="7.17577">
        <ele>331</ele>
        <time>2023-11-03T11:37:50Z</time>
      </trkpt>
      <trkpt lat="48.73222" lon="7.17608">
        <ele>330.4</ele>
        <time>2023-11-03T11:37:56Z</time>
      </trkpt>
      <trkpt lat="48.73218" lon="7.17638">
        <ele>329.9</ele>
        <time>2023-11-03T11:38:02Z</time>
      </trkpt>
      <trkpt lat="48.7321" lon="7.17667">
        <ele>329.2</ele>
        <time>2023-11-03T11:38:08Z</time>
      </trkpt>
      <trkpt lat="48.73203" lon="7.17696">
        <ele>328.3</ele>
        <time>2023-11-03T11:38:14Z</time>
      </trkpt>
      <trkpt lat="48.73194" lon="7.17723">
        <ele>327.3</ele>
        <time>2023-11-03T11:38:20Z</time>
      </trkpt>
      <trkpt lat="48.73193" lon="7.17752">
        <ele>326.6</ele>
        <time>2023-11-03T11:38:26Z</time>
      </trkpt>
      <trkpt lat="48.73191" lon="7.17782">
        <ele>325.8</ele>
        <time>2023-11-03T11:38:32Z</time>
      </trkpt>
      <trkpt lat="48.73192" lon="7.17814">
        <ele>324.9</ele>
        <time>2023-11-03T11:38:38Z</time>
      </trkpt>
      <trkpt lat="48.73191" lon="7.17845">
        <ele>324</ele>
        <time>2023-11-03T11:38:44Z</time>
      </trkpt>
      <trkpt lat="48.73191" lon="7.17876">
        <ele>323</ele>
        <time>2023-11-03T11:38:51Z</time>
      </trkpt>
      <trkpt lat="48.73193" lon="7.17907">
        <ele>321.9</ele>
        <time>2023-11-03T11:38:58Z</time>
      </trkpt>
      <trkpt lat="48.73191" lon="7.17934">
        <ele>320.9</ele>
        <time>2023-11-03T11:39:04Z</time>
      </trkpt>
      <trkpt lat="48.73188" lon="7.17965">
        <ele>319.5</ele>
        <time>2023-11-03T11:39:10Z</time>
      </trkpt>
      <trkpt lat="48.73182" lon="7.17994">
        <ele>317.9</ele>
        <time>2023-11-03T11:39:16Z</time>
      </trkpt>
      <trkpt lat="48.73179" lon="7.18024">
        <ele>316.3</ele>
        <time>2023-11-03T11:39:22Z</time>
      </trkpt>
      <trkpt lat="48.73176" lon="7.18051">
        <ele>314.8</ele>
        <time>2023-11-03T11:39:27Z</time>
      </trkpt>
      <trkpt lat="48.73167" lon="7.18081">
        <ele>312.8</ele>
        <time>2023-11-03T11:39:33Z</time>
      </trkpt>
      <trkpt lat="48.7316" lon="7.18111">
        <ele>310.8</ele>
        <time>2023-11-03T11:39:39Z</time>
      </trkpt>
      <trkpt lat="48.73158" lon="7.18139">
        <ele>309</ele>
        <time>2023-11-03T11:39:45Z</time>
      </trkpt>
      <trkpt lat="48.73155" lon="7.18168">
        <ele>307.2</ele>
        <time>2023-11-03T11:39:51Z</time>
      </trkpt>
      <trkpt lat="48.73155" lon="7.18196">
        <ele>305.7</ele>
        <time>2023-11-03T11:39:56Z</time>
      </trkpt>
      <trkpt lat="48.73158" lon="7.18228">
        <ele>303.9</ele>
        <time>2023-11-03T11:40:02Z</time>
      </trkpt>
      <trkpt lat="48.73164" lon="7.18256">
        <ele>302.3</ele>
        <time>2023-11-03T11:40:07Z</time>
      </trkpt>
      <trkpt lat="48.73169" lon="7.18285">
        <ele>300.7</ele>
        <time>2023-11-03T11:40:13Z</time>
      </trkpt>
      <trkpt lat="48.73173" lon="7.18315">
        <ele>298.9</ele>
        <time>2023-11-03T11:40:19Z</time>
      </trkpt>
      <trkpt lat="48.73176" lon="7.18344">
        <ele>297</ele>
        <time>2023-11-03T11:40:25Z</time>
      </trkpt>
      <trkpt lat="48.73175" lon="7.18372">
        <ele>295.2</ele>
        <time>2023-11-03T11:40:31Z</time>
      </trkpt>
      <trkpt lat="48.73173" lon="7.18401">
        <ele>293.3</ele>
        <time>2023-11-03T11:40:37Z</time>
      </trkpt>
      <trkpt lat="48.7318" lon="7.18429">
        <ele>290.7</ele>
        <time>2023-11-03T11:40:45Z</time>
      </trkpt>
      <trkpt lat="48.73188" lon="7.18439">
        <ele>293.8</ele>
        <time>2023-11-03T11:40:51Z</time>
      </trkpt>
      <trkpt lat="48.73207" lon="7.18432">
        <ele>295.9</ele>
        <time>2023-11-03T11:41:01Z</time>
      </trkpt>
      <trkpt lat="48.73225" lon="7.18425">
        <ele>297.6</ele>
        <time>2023-11-03T11:41:09Z</time>
      </trkpt>
      <trkpt lat="48.73238" lon="7.18423">
        <ele>297.8</ele>
        <time>2023-11-03T11:41:15Z</time>
      </trkpt>
      <trkpt lat="48.73252" lon="7.18443">
        <ele>296.5</ele>
        <time>2023-11-03T11:41:24Z</time>
      </trkpt>
      <trkpt lat="48.73267" lon="7.1846">
        <ele>294.6</ele>
        <time>2023-11-03T11:41:31Z</time>
      </trkpt>
      <trkpt lat="48.73279" lon="7.18483">
        <ele>293.9</ele>
        <time>2023-11-03T11:41:41Z</time>
      </trkpt>
      <trkpt lat="48.73287" lon="7.18509">
        <ele>295.1</ele>
        <time>2023-11-03T11:41:49Z</time>
      </trkpt>
      <trkpt lat="48.73297" lon="7.18534">
        <ele>296.6</ele>
        <time>2023-11-03T11:41:57Z</time>
      </trkpt>
      <trkpt lat="48.73302" lon="7.18563">
        <ele>298.5</ele>
        <time>2023-11-03T11:42:05Z</time>
      </trkpt>
      <trkpt lat="48.73299" lon="7.18591">
        <ele>300</ele>
        <time>2023-11-03T11:42:13Z</time>
      </trkpt>
      <trkpt lat="48.73291" lon="7.18618">
        <ele>300.5</ele>
        <time>2023-11-03T11:42:20Z</time>
      </trkpt>
      <trkpt lat="48.73281" lon="7.18642">
        <ele>300.3</ele>
        <time>2023-11-03T11:42:29Z</time>
      </trkpt>
      <trkpt lat="48.73266" lon="7.18662">
        <ele>299.1</ele>
        <time>2023-11-03T11:42:35Z</time>
      </trkpt>
      <trkpt lat="48.73267" lon="7.18692">
        <ele>297.2</ele>
        <time>2023-11-03T11:42:41Z</time>
      </trkpt>
      <trkpt lat="48.73266" lon="7.18721">
        <ele>295.7</ele>
        <time>2023-11-03T11:42:47Z</time>
      </trkpt>
      <trkpt lat="48.73269" lon="7.18749">
        <ele>295.7</ele>
        <time>2023-11-03T11:42:53Z</time>
      </trkpt>
      <trkpt lat="48.73282" lon="7.18772">
        <ele>296.2</ele>
        <time>2023-11-03T11:43:00Z</time>
      </trkpt>
      <trkpt lat="48.73291" lon="7.18797">
        <ele>296.9</ele>
        <time>2023-11-03T11:43:07Z</time>
      </trkpt>
      <trkpt lat="48.73302" lon="7.18822">
        <ele>297.8</ele>
        <time>2023-11-03T11:43:15Z</time>
      </trkpt>
      <trkpt lat="48.73316" lon="7.18844">
        <ele>298.9</ele>
        <time>2023-11-03T11:43:22Z</time>
      </trkpt>
      <trkpt lat="48.7333" lon="7.18862">
        <ele>300.3</ele>
        <time>2023-11-03T11:43:29Z</time>
      </trkpt>
      <trkpt lat="48.73346" lon="7.18875">
        <ele>301.6</ele>
        <time>2023-11-03T11:43:36Z</time>
      </trkpt>
      <trkpt lat="48.73366" lon="7.18878">
        <ele>303.2</ele>
        <time>2023-11-03T11:43:44Z</time>
      </trkpt>
      <trkpt lat="48.73385" lon="7.18873">
        <ele>305.4</ele>
        <time>2023-11-03T11:43:53Z</time>
      </trkpt>
      <trkpt lat="48.73404" lon="7.18868">
        <ele>308.2</ele>
        <time>2023-11-03T11:44:01Z</time>
      </trkpt>
      <trkpt lat="48.73423" lon="7.18868">
        <ele>311.1</ele>
        <time>2023-11-03T11:44:08Z</time>
      </trkpt>
      <trkpt lat="48.73442" lon="7.18866">
        <ele>313.4</ele>
        <time>2023-11-03T11:44:15Z</time>
      </trkpt>
      <trkpt lat="48.73462" lon="7.18865">
        <ele>315.3</ele>
        <time>2023-11-03T11:44:23Z</time>
      </trkpt>
      <trkpt lat="48.7348" lon="7.18857">
        <ele>316.9</ele>
        <time>2023-11-03T11:44:32Z</time>
      </trkpt>
      <trkpt lat="48.73499" lon="7.18864">
        <ele>318.8</ele>
        <time>2023-11-03T11:44:42Z</time>
      </trkpt>
      <trkpt lat="48.73518" lon="7.18856">
        <ele>320.1</ele>
        <time>2023-11-03T11:44:50Z</time>
      </trkpt>
      <trkpt lat="48.73539" lon="7.18853">
        <ele>321.1</ele>
        <time>2023-11-03T11:44:59Z</time>
      </trkpt>
      <trkpt lat="48.7356" lon="7.18851">
        <ele>322.5</ele>
        <time>2023-11-03T11:45:06Z</time>
      </trkpt>
      <trkpt lat="48.73579" lon="7.18854">
        <ele>324</ele>
        <time>2023-11-03T11:45:14Z</time>
      </trkpt>
      <trkpt lat="48.73597" lon="7.18863">
        <ele>325.3</ele>
        <time>2023-11-03T11:45:21Z</time>
      </trkpt>
      <trkpt lat="48.73616" lon="7.18867">
        <ele>326.5</ele>
        <time>2023-11-03T11:45:27Z</time>
      </trkpt>
      <trkpt lat="48.73637" lon="7.18869">
        <ele>327.6</ele>
        <time>2023-11-03T11:45:33Z</time>
      </trkpt>
      <trkpt lat="48.73657" lon="7.18869">
        <ele>328.5</ele>
        <time>2023-11-03T11:45:39Z</time>
      </trkpt>
      <trkpt lat="48.73676" lon="7.18877">
        <ele>329.6</ele>
        <time>2023-11-03T11:45:46Z</time>
      </trkpt>
      <trkpt lat="48.73694" lon="7.18881">
        <ele>330.8</ele>
        <time>2023-11-03T11:45:52Z</time>
      </trkpt>
      <trkpt lat="48.73716" lon="7.18886">
        <ele>332.1</ele>
        <time>2023-11-03T11:45:59Z</time>
      </trkpt>
      <trkpt lat="48.73736" lon="7.18886">
        <ele>333.3</ele>
        <time>2023-11-03T11:46:06Z</time>
      </trkpt>
      <trkpt lat="48.73755" lon="7.18882">
        <ele>334.4</ele>
        <time>2023-11-03T11:46:12Z</time>
      </trkpt>
      <trkpt lat="48.73766" lon="7.18883">
        <ele>335.3</ele>
        <time>2023-11-03T11:46:16Z</time>
      </trkpt>
      <trkpt lat="48.7378" lon="7.18901">
        <ele>336.4</ele>
        <time>2023-11-03T11:46:23Z</time>
      </trkpt>
      <trkpt lat="48.73798" lon="7.18908">
        <ele>337.1</ele>
        <time>2023-11-03T11:46:29Z</time>
      </trkpt>
      <trkpt lat="48.73817" lon="7.18914">
        <ele>337.8</ele>
        <time>2023-11-03T11:46:35Z</time>
      </trkpt>
      <trkpt lat="48.73836" lon="7.18927">
        <ele>338.7</ele>
        <time>2023-11-03T11:46:41Z</time>
      </trkpt>
      <trkpt lat="48.73852" lon="7.18941">
        <ele>339.5</ele>
        <time>2023-11-03T11:46:48Z</time>
      </trkpt>
      <trkpt lat="48.73869" lon="7.18952">
        <ele>340.2</ele>
        <time>2023-11-03T11:46:55Z</time>
      </trkpt>
      <trkpt lat="48.73885" lon="7.18964">
        <ele>340.9</ele>
        <time>2023-11-03T11:47:01Z</time>
      </trkpt>
      <trkpt lat="48.73903" lon="7.18979">
        <ele>341.6</ele>
        <time>2023-11-03T11:47:09Z</time>
      </trkpt>
      <trkpt lat="48.7392" lon="7.18995">
        <ele>342.4</ele>
        <time>2023-11-03T11:47:17Z</time>
      </trkpt>
      <trkpt lat="48.73927" lon="7.19001">
        <ele>342.7</ele>
        <time>2023-11-03T11:47:20Z</time>
      </trkpt>
      <trkpt lat="48.73926" lon="7.19032">
        <ele>344.2</ele>
        <time>2023-11-03T11:47:27Z</time>
      </trkpt>
      <trkpt lat="48.73914" lon="7.19057">
        <ele>342</ele>
        <time>2023-11-03T11:47:33Z</time>
      </trkpt>
      <trkpt lat="48.73902" lon="7.19081">
        <ele>340.3</ele>
        <time>2023-11-03T11:47:39Z</time>
      </trkpt>
      <trkpt lat="48.7389" lon="7.19103">
        <ele>338.9</ele>
        <time>2023-11-03T11:47:45Z</time>
      </trkpt>
      <trkpt lat="48.73879" lon="7.19127">
        <ele>337.6</ele>
        <time>2023-11-03T11:47:51Z</time>
      </trkpt>
      <trkpt lat="48.73868" lon="7.1915">
        <ele>336.2</ele>
        <time>2023-11-03T11:47:57Z</time>
      </trkpt>
      <trkpt lat="48.73855" lon="7.19174">
        <ele>334.7</ele>
        <time>2023-11-03T11:48:04Z</time>
      </trkpt>
      <trkpt lat="48.73842" lon="7.19195">
        <ele>333.1</ele>
        <time>2023-11-03T11:48:10Z</time>
      </trkpt>
      <trkpt lat="48.73827" lon="7.19217">
        <ele>331.2</ele>
        <time>2023-11-03T11:48:17Z</time>
      </trkpt>
      <trkpt lat="48.73818" lon="7.19241">
        <ele>330.6</ele>
        <time>2023-11-03T11:48:23Z</time>
      </trkpt>
      <trkpt lat="48.73811" lon="7.19268">
        <ele>330.2</ele>
        <time>2023-11-03T11:48:29Z</time>
      </trkpt>
      <trkpt lat="48.73803" lon="7.19297">
        <ele>329.6</ele>
        <time>2023-11-03T11:48:35Z</time>
      </trkpt>
      <trkpt lat="48.73795" lon="7.19325">
        <ele>329</ele>
        <time>2023-11-03T11:48:41Z</time>
      </trkpt>
      <trkpt lat="48.73787" lon="7.19353">
        <ele>328.5</ele>
        <time>2023-11-03T11:48:47Z</time>
      </trkpt>
      <trkpt lat="48.73784" lon="7.19382">
        <ele>328</ele>
        <time>2023-11-03T11:48:53Z</time>
      </trkpt>
      <trkpt lat="48.73784" lon="7.19414">
        <ele>327.4</ele>
        <time>2023-11-03T11:48:59Z</time>
      </trkpt>
      <trkpt lat="48.73784" lon="7.19444">
        <ele>326.6</ele>
        <time>2023-11-03T11:49:05Z</time>
      </trkpt>
      <trkpt lat="48.73783" lon="7.19475">
        <ele>325.5</ele>
        <time>2023-11-03T11:49:11Z</time>
      </trkpt>
      <trkpt lat="48.73779" lon="7.19506">
        <ele>324</ele>
        <time>2023-11-03T11:49:17Z</time>
      </trkpt>
      <trkpt lat="48.73772" lon="7.19534">
        <ele>322.5</ele>
        <time>2023-11-03T11:49:23Z</time>
      </trkpt>
      <trkpt lat="48.73763" lon="7.19561">
        <ele>320.9</ele>
        <time>2023-11-03T11:49:29Z</time>
      </trkpt>
      <trkpt lat="48.73753" lon="7.19589">
        <ele>319.5</ele>
        <time>2023-11-03T11:49:35Z</time>
      </trkpt>
      <trkpt lat="48.73747" lon="7.19618">
        <ele>318.4</ele>
        <time>2023-11-03T11:49:41Z</time>
      </trkpt>
      <trkpt lat="48.73744" lon="7.19647">
        <ele>317.5</ele>
        <time>2023-11-03T11:49:47Z</time>
      </trkpt>
      <trkpt lat="48.73744" lon="7.19676">
        <ele>316.9</ele>
        <time>2023-11-03T11:49:53Z</time>
      </trkpt>
      <trkpt lat="48.73745" lon="7.19703">
        <ele>316.5</ele>
        <time>2023-11-03T11:49:59Z</time>
      </trkpt>
      <trkpt lat="48.7375" lon="7.1973">
        <ele>316</ele>
        <time>2023-11-03T11:50:05Z</time>
      </trkpt>
      <trkpt lat="48.73758" lon="7.19759">
        <ele>315.5</ele>
        <time>2023-11-03T11:50:12Z</time>
      </trkpt>
      <trkpt lat="48.73762" lon="7.19787">
        <ele>314.8</ele>
        <time>2023-11-03T11:50:18Z</time>
      </trkpt>
      <trkpt lat="48.73759" lon="7.19817">
        <ele>314.1</ele>
        <time>2023-11-03T11:50:24Z</time>
      </trkpt>
      <trkpt lat="48.73752" lon="7.19846">
        <ele>313.5</ele>
        <time>2023-11-03T11:50:30Z</time>
      </trkpt>
      <trkpt lat="48.73741" lon="7.19871">
        <ele>313.1</ele>
        <time>2023-11-03T11:50:36Z</time>
      </trkpt>
      <trkpt lat="48.73729" lon="7.19894">
        <ele>312.9</ele>
        <time>2023-11-03T11:50:42Z</time>
      </trkpt>
      <trkpt lat="48.73715" lon="7.19917">
        <ele>312.9</ele>
        <time>2023-11-03T11:50:49Z</time>
      </trkpt>
      <trkpt lat="48.73703" lon="7.19939">
        <ele>312.9</ele>
        <time>2023-11-03T11:50:55Z</time>
      </trkpt>
      <trkpt lat="48.73691" lon="7.19961">
        <ele>313.1</ele>
        <time>2023-11-03T11:51:01Z</time>
      </trkpt>
      <trkpt lat="48.73679" lon="7.19982">
        <ele>313.5</ele>
        <time>2023-11-03T11:51:07Z</time>
      </trkpt>
      <trkpt lat="48.73666" lon="7.20003">
        <ele>313.8</ele>
        <time>2023-11-03T11:51:13Z</time>
      </trkpt>
      <trkpt lat="48.73653" lon="7.20021">
        <ele>314.3</ele>
        <time>2023-11-03T11:51:19Z</time>
      </trkpt>
      <trkpt lat="48.73639" lon="7.2004">
        <ele>315.1</ele>
        <time>2023-11-03T11:51:25Z</time>
      </trkpt>
      <trkpt lat="48.73624" lon="7.2006">
        <ele>316.2</ele>
        <time>2023-11-03T11:51:32Z</time>
      </trkpt>
      <trkpt lat="48.73609" lon="7.2008">
        <ele>317.6</ele>
        <time>2023-11-03T11:51:40Z</time>
      </trkpt>
      <trkpt lat="48.736" lon="7.20107">
        <ele>318.9</ele>
        <time>2023-11-03T11:51:49Z</time>
      </trkpt>
      <trkpt lat="48.73592" lon="7.20134">
        <ele>320.4</ele>
        <time>2023-11-03T11:51:56Z</time>
      </trkpt>
      <trkpt lat="48.73586" lon="7.20163">
        <ele>321.9</ele>
        <time>2023-11-03T11:52:03Z</time>
      </trkpt>
      <trkpt lat="48.7358" lon="7.2019">
        <ele>323.5</ele>
        <time>2023-11-03T11:52:10Z</time>
      </trkpt>
      <trkpt lat="48.73571" lon="7.20213">
        <ele>325.1</ele>
        <time>2023-11-03T11:52:17Z</time>
      </trkpt>
      <trkpt lat="48.73559" lon="7.20235">
        <ele>326.5</ele>
        <time>2023-11-03T11:52:24Z</time>
      </trkpt>
      <trkpt lat="48.73544" lon="7.20255">
        <ele>328</ele>
        <time>2023-11-03T11:52:30Z</time>
      </trkpt>
      <trkpt lat="48.7353" lon="7.20277">
        <ele>329.4</ele>
        <time>2023-11-03T11:52:37Z</time>
      </trkpt>
      <trkpt lat="48.73518" lon="7.20299">
        <ele>330.7</ele>
        <time>2023-11-03T11:52:44Z</time>
      </trkpt>
      <trkpt lat="48.73503" lon="7.20319">
        <ele>332.3</ele>
        <time>2023-11-03T11:52:52Z</time>
      </trkpt>
      <trkpt lat="48.73491" lon="7.2034">
        <ele>333.7</ele>
        <time>2023-11-03T11:52:59Z</time>
      </trkpt>
      <trkpt lat="48.73478" lon="7.20362">
        <ele>335</ele>
        <time>2023-11-03T11:53:06Z</time>
      </trkpt>
      <trkpt lat="48.73463" lon="7.20383">
        <ele>336.3</ele>
        <time>2023-11-03T11:53:13Z</time>
      </trkpt>
      <trkpt lat="48.73449" lon="7.20402">
        <ele>337.4</ele>
        <time>2023-11-03T11:53:19Z</time>
      </trkpt>
      <trkpt lat="48.73434" lon="7.20423">
        <ele>338.4</ele>
        <time>2023-11-03T11:53:25Z</time>
      </trkpt>
      <trkpt lat="48.73421" lon="7.20445">
        <ele>339.6</ele>
        <time>2023-11-03T11:53:31Z</time>
      </trkpt>
      <trkpt lat="48.73408" lon="7.20467">
        <ele>340.8</ele>
        <time>2023-11-03T11:53:37Z</time>
      </trkpt>
      <trkpt lat="48.73393" lon="7.20488">
        <ele>342</ele>
        <time>2023-11-03T11:53:44Z</time>
      </trkpt>
      <trkpt lat="48.73381" lon="7.20509">
        <ele>343.1</ele>
        <time>2023-11-03T11:53:50Z</time>
      </trkpt>
      <trkpt lat="48.73369" lon="7.2053">
        <ele>344.1</ele>
        <time>2023-11-03T11:53:56Z</time>
      </trkpt>
      <trkpt lat="48.73354" lon="7.20553">
        <ele>345.2</ele>
        <time>2023-11-03T11:54:03Z</time>
      </trkpt>
      <trkpt lat="48.73341" lon="7.20574">
        <ele>346.2</ele>
        <time>2023-11-03T11:54:09Z</time>
      </trkpt>
      <trkpt lat="48.73328" lon="7.20594">
        <ele>347.1</ele>
        <time>2023-11-03T11:54:15Z</time>
      </trkpt>
      <trkpt lat="48.73317" lon="7.20617">
        <ele>348.2</ele>
        <time>2023-11-03T11:54:21Z</time>
      </trkpt>
      <trkpt lat="48.73302" lon="7.20639">
        <ele>349.3</ele>
        <time>2023-11-03T11:54:27Z</time>
      </trkpt>
      <trkpt lat="48.73286" lon="7.20658">
        <ele>350</ele>
        <time>2023-11-03T11:54:33Z</time>
      </trkpt>
      <trkpt lat="48.73271" lon="7.20674">
        <ele>350.5</ele>
        <time>2023-11-03T11:54:39Z</time>
      </trkpt>
      <trkpt lat="48.73255" lon="7.20688">
        <ele>351</ele>
        <time>2023-11-03T11:54:45Z</time>
      </trkpt>
      <trkpt lat="48.73238" lon="7.20701">
        <ele>351.7</ele>
        <time>2023-11-03T11:54:51Z</time>
      </trkpt>
      <trkpt lat="48.73225" lon="7.2072">
        <ele>353.9</ele>
        <time>2023-11-03T11:54:57Z</time>
      </trkpt>
      <trkpt lat="48.7321" lon="7.20735">
        <ele>355.2</ele>
        <time>2023-11-03T11:55:03Z</time>
      </trkpt>
      <trkpt lat="48.73192" lon="7.20749">
        <ele>355</ele>
        <time>2023-11-03T11:55:10Z</time>
      </trkpt>
      <trkpt lat="48.73176" lon="7.20763">
        <ele>354.7</ele>
        <time>2023-11-03T11:55:16Z</time>
      </trkpt>
      <trkpt lat="48.7316" lon="7.20778">
        <ele>354.5</ele>
        <time>2023-11-03T11:55:22Z</time>
      </trkpt>
      <trkpt lat="48.73145" lon="7.20792">
        <ele>354.2</ele>
        <time>2023-11-03T11:55:28Z</time>
      </trkpt>
      <trkpt lat="48.7313" lon="7.2081">
        <ele>353.9</ele>
        <time>2023-11-03T11:55:34Z</time>
      </trkpt>
      <trkpt lat="48.73114" lon="7.20826">
        <ele>353.5</ele>
        <time>2023-11-03T11:55:40Z</time>
      </trkpt>
      <trkpt lat="48.73099" lon="7.20843">
        <ele>352.9</ele>
        <time>2023-11-03T11:55:46Z</time>
      </trkpt>
      <trkpt lat="48.73081" lon="7.2086">
        <ele>352.1</ele>
        <time>2023-11-03T11:55:52Z</time>
      </trkpt>
      <trkpt lat="48.73063" lon="7.20877">
        <ele>351.1</ele>
        <time>2023-11-03T11:55:58Z</time>
      </trkpt>
      <trkpt lat="48.73046" lon="7.20892">
        <ele>349.9</ele>
        <time>2023-11-03T11:56:04Z</time>
      </trkpt>
      <trkpt lat="48.73029" lon="7.2091">
        <ele>348.6</ele>
        <time>2023-11-03T11:56:10Z</time>
      </trkpt>
      <trkpt lat="48.73013" lon="7.20926">
        <ele>347.4</ele>
        <time>2023-11-03T11:56:16Z</time>
      </trkpt>
      <trkpt lat="48.72998" lon="7.20947">
        <ele>346.2</ele>
        <time>2023-11-03T11:56:23Z</time>
      </trkpt>
      <trkpt lat="48.72981" lon="7.2096">
        <ele>346.7</ele>
        <time>2023-11-03T11:56:29Z</time>
      </trkpt>
      <trkpt lat="48.72962" lon="7.20965">
        <ele>347</ele>
        <time>2023-11-03T11:56:35Z</time>
      </trkpt>
      <trkpt lat="48.72941" lon="7.2097">
        <ele>346.5</ele>
        <time>2023-11-03T11:56:41Z</time>
      </trkpt>
      <trkpt lat="48.72921" lon="7.20972">
        <ele>346.2</ele>
        <time>2023-11-03T11:56:47Z</time>
      </trkpt>
      <trkpt lat="48.72902" lon="7.20973">
        <ele>346.4</ele>
        <time>2023-11-03T11:56:53Z</time>
      </trkpt>
      <trkpt lat="48.72883" lon="7.20975">
        <ele>346.6</ele>
        <time>2023-11-03T11:56:59Z</time>
      </trkpt>
      <trkpt lat="48.72862" lon="7.20975">
        <ele>346.9</ele>
        <time>2023-11-03T11:57:05Z</time>
      </trkpt>
      <trkpt lat="48.72841" lon="7.20974">
        <ele>347.3</ele>
        <time>2023-11-03T11:57:11Z</time>
      </trkpt>
      <trkpt lat="48.7282" lon="7.20972">
        <ele>347.8</ele>
        <time>2023-11-03T11:57:18Z</time>
      </trkpt>
      <trkpt lat="48.728" lon="7.20971">
        <ele>348.1</ele>
        <time>2023-11-03T11:57:24Z</time>
      </trkpt>
      <trkpt lat="48.7278" lon="7.20973">
        <ele>348.3</ele>
        <time>2023-11-03T11:57:30Z</time>
      </trkpt>
      <trkpt lat="48.72759" lon="7.20974">
        <ele>348.2</ele>
        <time>2023-11-03T11:57:36Z</time>
      </trkpt>
      <trkpt lat="48.72739" lon="7.20976">
        <ele>348</ele>
        <time>2023-11-03T11:57:42Z</time>
      </trkpt>
      <trkpt lat="48.7272" lon="7.20977">
        <ele>347.5</ele>
        <time>2023-11-03T11:57:48Z</time>
      </trkpt>
      <trkpt lat="48.72701" lon="7.20977">
        <ele>346.8</ele>
        <time>2023-11-03T11:57:54Z</time>
      </trkpt>
      <trkpt lat="48.7268" lon="7.20977">
        <ele>346.1</ele>
        <time>2023-11-03T11:58:00Z</time>
      </trkpt>
      <trkpt lat="48.72661" lon="7.20973">
        <ele>345.6</ele>
        <time>2023-11-03T11:58:06Z</time>
      </trkpt>
      <trkpt lat="48.72641" lon="7.20974">
        <ele>345.6</ele>
        <time>2023-11-03T11:58:12Z</time>
      </trkpt>
      <trkpt lat="48.7262" lon="7.20977">
        <ele>345.2</ele>
        <time>2023-11-03T11:58:18Z</time>
      </trkpt>
      <trkpt lat="48.72601" lon="7.20983">
        <ele>342.2</ele>
        <time>2023-11-03T11:58:24Z</time>
      </trkpt>
      <trkpt lat="48.72582" lon="7.20988">
        <ele>339.3</ele>
        <time>2023-11-03T11:58:30Z</time>
      </trkpt>
      <trkpt lat="48.72563" lon="7.20995">
        <ele>335.8</ele>
        <time>2023-11-03T11:58:37Z</time>
      </trkpt>
      <trkpt lat="48.72544" lon="7.21009">
        <ele>331.2</ele>
        <time>2023-11-03T11:58:43Z</time>
      </trkpt>
      <trkpt lat="48.72526" lon="7.21016">
        <ele>328.4</ele>
        <time>2023-11-03T11:58:47Z</time>
      </trkpt>
      <trkpt lat="48.72504" lon="7.21018">
        <ele>325.1</ele>
        <time>2023-11-03T11:58:53Z</time>
      </trkpt>
      <trkpt lat="48.72485" lon="7.21007">
        <ele>322.9</ele>
        <time>2023-11-03T11:58:58Z</time>
      </trkpt>
      <trkpt lat="48.7247" lon="7.20986">
        <ele>320.8</ele>
        <time>2023-11-03T11:59:04Z</time>
      </trkpt>
      <trkpt lat="48.72459" lon="7.20964">
        <ele>320</ele>
        <time>2023-11-03T11:59:10Z</time>
      </trkpt>
      <trkpt lat="48.72458" lon="7.20937">
        <ele>319.1</ele>
        <time>2023-11-03T11:59:15Z</time>
      </trkpt>
      <trkpt lat="48.72459" lon="7.20908">
        <ele>318.1</ele>
        <time>2023-11-03T11:59:21Z</time>
      </trkpt>
      <trkpt lat="48.72462" lon="7.20878">
        <ele>316.6</ele>
        <time>2023-11-03T11:59:28Z</time>
      </trkpt>
      <trkpt lat="48.72465" lon="7.20849">
        <ele>314.7</ele>
        <time>2023-11-03T11:59:34Z</time>
      </trkpt>
      <trkpt lat="48.72467" lon="7.2082">
        <ele>312.7</ele>
        <time>2023-11-03T11:59:40Z</time>
      </trkpt>
      <trkpt lat="48.72472" lon="7.2079">
        <ele>311.3</ele>
        <time>2023-11-03T11:59:46Z</time>
      </trkpt>
      <trkpt lat="48.72478" lon="7.20762">
        <ele>309.9</ele>
        <time>2023-11-03T11:59:52Z</time>
      </trkpt>
      <trkpt lat="48.72486" lon="7.20736">
        <ele>308.5</ele>
        <time>2023-11-03T11:59:58Z</time>
      </trkpt>
      <trkpt lat="48.72494" lon="7.20709">
        <ele>307.2</ele>
        <time>2023-11-03T12:00:04Z</time>
      </trkpt>
      <trkpt lat="48.72498" lon="7.2068">
        <ele>305.6</ele>
        <time>2023-11-03T12:00:10Z</time>
      </trkpt>
      <trkpt lat="48.72504" lon="7.20651">
        <ele>304</ele>
        <time>2023-11-03T12:00:16Z</time>
      </trkpt>
      <trkpt lat="48.72511" lon="7.20625">
        <ele>302.4</ele>
        <time>2023-11-03T12:00:22Z</time>
      </trkpt>
      <trkpt lat="48.72523" lon="7.20599">
        <ele>301</ele>
        <time>2023-11-03T12:00:28Z</time>
      </trkpt>
      <trkpt lat="48.7253" lon="7.20571">
        <ele>300.2</ele>
        <time>2023-11-03T12:00:34Z</time>
      </trkpt>
      <trkpt lat="48.72534" lon="7.20543">
        <ele>299.5</ele>
        <time>2023-11-03T12:00:40Z</time>
      </trkpt>
      <trkpt lat="48.72541" lon="7.20516">
        <ele>298.6</ele>
        <time>2023-11-03T12:00:46Z</time>
      </trkpt>
      <trkpt lat="48.72541" lon="7.20487">
        <ele>297.7</ele>
        <time>2023-11-03T12:00:52Z</time>
      </trkpt>
      <trkpt lat="48.72544" lon="7.20456">
        <ele>296.5</ele>
        <time>2023-11-03T12:00:59Z</time>
      </trkpt>
      <trkpt lat="48.72545" lon="7.20428">
        <ele>295.1</ele>
        <time>2023-11-03T12:01:04Z</time>
      </trkpt>
      <trkpt lat="48.72547" lon="7.204">
        <ele>294.2</ele>
        <time>2023-11-03T12:01:09Z</time>
      </trkpt>
      <trkpt lat="48.72551" lon="7.20372">
        <ele>293.8</ele>
        <time>2023-11-03T12:01:15Z</time>
      </trkpt>
      <trkpt lat="48.72557" lon="7.20342">
        <ele>293.7</ele>
        <time>2023-11-03T12:01:22Z</time>
      </trkpt>
      <trkpt lat="48.7256" lon="7.20313">
        <ele>293.8</ele>
        <time>2023-11-03T12:01:29Z</time>
      </trkpt>
      <trkpt lat="48.72552" lon="7.20283">
        <ele>293.7</ele>
        <time>2023-11-03T12:01:35Z</time>
      </trkpt>
      <trkpt lat="48.72544" lon="7.20253">
        <ele>293.3</ele>
        <time>2023-11-03T12:01:41Z</time>
      </trkpt>
      <trkpt lat="48.72541" lon="7.20225">
        <ele>293.1</ele>
        <time>2023-11-03T12:01:47Z</time>
      </trkpt>
      <trkpt lat="48.72542" lon="7.20198">
        <ele>292.9</ele>
        <time>2023-11-03T12:01:53Z</time>
      </trkpt>
      <trkpt lat="48.7254" lon="7.20171">
        <ele>292.5</ele>
        <time>2023-11-03T12:01:59Z</time>
      </trkpt>
      <trkpt lat="48.72542" lon="7.20142">
        <ele>293.4</ele>
        <time>2023-11-03T12:02:05Z</time>
      </trkpt>
      <trkpt lat="48.72551" lon="7.20119">
        <ele>295.2</ele>
        <time>2023-11-03T12:02:12Z</time>
      </trkpt>
      <trkpt lat="48.72551" lon="7.20091">
        <ele>296.3</ele>
        <time>2023-11-03T12:02:18Z</time>
      </trkpt>
      <trkpt lat="48.72555" lon="7.20063">
        <ele>295.4</ele>
        <time>2023-11-03T12:02:24Z</time>
      </trkpt>
      <trkpt lat="48.7256" lon="7.20034">
        <ele>294</ele>
        <time>2023-11-03T12:02:30Z</time>
      </trkpt>
      <trkpt lat="48.72571" lon="7.20012">
        <ele>292.6</ele>
        <time>2023-11-03T12:02:35Z</time>
      </trkpt>
      <trkpt lat="48.72585" lon="7.19991">
        <ele>290.8</ele>
        <time>2023-11-03T12:02:40Z</time>
      </trkpt>
      <trkpt lat="48.72601" lon="7.19971">
        <ele>289.1</ele>
        <time>2023-11-03T12:02:45Z</time>
      </trkpt>
      <trkpt lat="48.72617" lon="7.19952">
        <ele>287.4</ele>
        <time>2023-11-03T12:02:50Z</time>
      </trkpt>
      <trkpt lat="48.72632" lon="7.19933">
        <ele>285.7</ele>
        <time>2023-11-03T12:02:55Z</time>
      </trkpt>
      <trkpt lat="48.72647" lon="7.19912">
        <ele>283.8</ele>
        <time>2023-11-03T12:03:00Z</time>
      </trkpt>
      <trkpt lat="48.72662" lon="7.19893">
        <ele>282.5</ele>
        <time>2023-11-03T12:03:05Z</time>
      </trkpt>
      <trkpt lat="48.72678" lon="7.19873">
        <ele>281.4</ele>
        <time>2023-11-03T12:03:10Z</time>
      </trkpt>
      <trkpt lat="48.72694" lon="7.19854">
        <ele>280.4</ele>
        <time>2023-11-03T12:03:15Z</time>
      </trkpt>
      <trkpt lat="48.72709" lon="7.19834">
        <ele>279.7</ele>
        <time>2023-11-03T12:03:20Z</time>
      </trkpt>
      <trkpt lat="48.7272" lon="7.1981">
        <ele>279.5</ele>
        <time>2023-11-03T12:03:26Z</time>
      </trkpt>
      <trkpt lat="48.72717" lon="7.19783">
        <ele>279.8</ele>
        <time>2023-11-03T12:03:32Z</time>
      </trkpt>
      <trkpt lat="48.72704" lon="7.19763">
        <ele>280.5</ele>
        <time>2023-11-03T12:03:37Z</time>
      </trkpt>
      <trkpt lat="48.72685" lon="7.19754">
        <ele>281.1</ele>
        <time>2023-11-03T12:03:43Z</time>
      </trkpt>
      <trkpt lat="48.72665" lon="7.1975">
        <ele>281.8</ele>
        <time>2023-11-03T12:03:49Z</time>
      </trkpt>
      <trkpt lat="48.72645" lon="7.19751">
        <ele>283</ele>
        <time>2023-11-03T12:03:55Z</time>
      </trkpt>
      <trkpt lat="48.72624" lon="7.19752">
        <ele>284.5</ele>
        <time>2023-11-03T12:04:02Z</time>
      </trkpt>
      <trkpt lat="48.72605" lon="7.19752">
        <ele>285.9</ele>
        <time>2023-11-03T12:04:09Z</time>
      </trkpt>
      <trkpt lat="48.72585" lon="7.19749">
        <ele>287.2</ele>
        <time>2023-11-03T12:04:16Z</time>
      </trkpt>
      <trkpt lat="48.72567" lon="7.19741">
        <ele>287.7</ele>
        <time>2023-11-03T12:04:22Z</time>
      </trkpt>
      <trkpt lat="48.72551" lon="7.19723">
        <ele>287.1</ele>
        <time>2023-11-03T12:04:28Z</time>
      </trkpt>
      <trkpt lat="48.72537" lon="7.19701">
        <ele>285.9</ele>
        <time>2023-11-03T12:04:34Z</time>
      </trkpt>
      <trkpt lat="48.72525" lon="7.19676">
        <ele>284.7</ele>
        <time>2023-11-03T12:04:40Z</time>
      </trkpt>
      <trkpt lat="48.72514" lon="7.19649">
        <ele>283.6</ele>
        <time>2023-11-03T12:04:46Z</time>
      </trkpt>
      <trkpt lat="48.72502" lon="7.19623">
        <ele>282.7</ele>
        <time>2023-11-03T12:04:52Z</time>
      </trkpt>
      <trkpt lat="48.72489" lon="7.196">
        <ele>282</ele>
        <time>2023-11-03T12:04:58Z</time>
      </trkpt>
      <trkpt lat="48.72477" lon="7.19577">
        <ele>281.2</ele>
        <time>2023-11-03T12:05:04Z</time>
      </trkpt>
      <trkpt lat="48.72467" lon="7.19549">
        <ele>280.4</ele>
        <time>2023-11-03T12:05:10Z</time>
      </trkpt>
      <trkpt lat="48.72459" lon="7.19518">
        <ele>279.6</ele>
        <time>2023-11-03T12:05:16Z</time>
      </trkpt>
      <trkpt lat="48.72451" lon="7.19492">
        <ele>279</ele>
        <time>2023-11-03T12:05:21Z</time>
      </trkpt>
      <trkpt lat="48.72443" lon="7.19467">
        <ele>278.3</ele>
        <time>2023-11-03T12:05:26Z</time>
      </trkpt>
      <trkpt lat="48.72437" lon="7.19437">
        <ele>277.5</ele>
        <time>2023-11-03T12:05:32Z</time>
      </trkpt>
      <trkpt lat="48.72433" lon="7.19405">
        <ele>276.8</ele>
        <time>2023-11-03T12:05:38Z</time>
      </trkpt>
      <trkpt lat="48.7243" lon="7.19375">
        <ele>276.2</ele>
        <time>2023-11-03T12:05:44Z</time>
      </trkpt>
      <trkpt lat="48.7243" lon="7.19345">
        <ele>275.8</ele>
        <time>2023-11-03T12:05:50Z</time>
      </trkpt>
      <trkpt lat="48.7243" lon="7.19315">
        <ele>275.6</ele>
        <time>2023-11-03T12:05:56Z</time>
      </trkpt>
      <trkpt lat="48.72434" lon="7.19288">
        <ele>275.9</ele>
        <time>2023-11-03T12:06:02Z</time>
      </trkpt>
      <trkpt lat="48.72439" lon="7.19258">
        <ele>276.7</ele>
        <time>2023-11-03T12:06:09Z</time>
      </trkpt>
      <trkpt lat="48.72442" lon="7.1923">
        <ele>277.5</ele>
        <time>2023-11-03T12:06:15Z</time>
      </trkpt>
      <trkpt lat="48.72445" lon="7.19201">
        <ele>278.2</ele>
        <time>2023-11-03T12:06:21Z</time>
      </trkpt>
      <trkpt lat="48.72446" lon="7.19171">
        <ele>278.5</ele>
        <time>2023-11-03T12:06:27Z</time>
      </trkpt>
      <trkpt lat="48.72447" lon="7.19141">
        <ele>278.7</ele>
        <time>2023-11-03T12:06:33Z</time>
      </trkpt>
      <trkpt lat="48.7245" lon="7.19115">
        <ele>278.4</ele>
        <time>2023-11-03T12:06:39Z</time>
      </trkpt>
      <trkpt lat="48.72456" lon="7.19087">
        <ele>278.2</ele>
        <time>2023-11-03T12:06:45Z</time>
      </trkpt>
      <trkpt lat="48.7246" lon="7.1906">
        <ele>278</ele>
        <time>2023-11-03T12:06:51Z</time>
      </trkpt>
      <trkpt lat="48.72464" lon="7.19031">
        <ele>277.8</ele>
        <time>2023-11-03T12:06:57Z</time>
      </trkpt>
      <trkpt lat="48.72467" lon="7.19002">
        <ele>277.3</ele>
        <time>2023-11-03T12:07:03Z</time>
      </trkpt>
      <trkpt lat="48.72471" lon="7.18975">
        <ele>277</ele>
        <time>2023-11-03T12:07:09Z</time>
      </trkpt>
      <trkpt lat="48.72476" lon="7.18947">
        <ele>276.6</ele>
        <time>2023-11-03T12:07:15Z</time>
      </trkpt>
      <trkpt lat="48.72482" lon="7.18917">
        <ele>276.2</ele>
        <time>2023-11-03T12:07:21Z</time>
      </trkpt>
      <trkpt lat="48.72488" lon="7.18889">
        <ele>276.1</ele>
        <time>2023-11-03T12:07:27Z</time>
      </trkpt>
      <trkpt lat="48.7249" lon="7.18861">
        <ele>275.9</ele>
        <time>2023-11-03T12:07:33Z</time>
      </trkpt>
      <trkpt lat="48.72493" lon="7.18834">
        <ele>275.7</ele>
        <time>2023-11-03T12:07:39Z</time>
      </trkpt>
      <trkpt lat="48.72497" lon="7.18805">
        <ele>275.6</ele>
        <time>2023-11-03T12:07:45Z</time>
      </trkpt>
      <trkpt lat="48.72504" lon="7.18777">
        <ele>275.9</ele>
        <time>2023-11-03T12:07:51Z</time>
      </trkpt>
      <trkpt lat="48.72515" lon="7.18751">
        <ele>276.6</ele>
        <time>2023-11-03T12:07:57Z</time>
      </trkpt>
      <trkpt lat="48.72527" lon="7.18728">
        <ele>277.2</ele>
        <time>2023-11-03T12:08:03Z</time>
      </trkpt>
      <trkpt lat="48.72543" lon="7.18712">
        <ele>276.9</ele>
        <time>2023-11-03T12:08:10Z</time>
      </trkpt>
      <trkpt lat="48.72562" lon="7.18702">
        <ele>275.3</ele>
        <time>2023-11-03T12:08:17Z</time>
      </trkpt>
      <trkpt lat="48.72582" lon="7.18693">
        <ele>273</ele>
        <time>2023-11-03T12:08:24Z</time>
      </trkpt>
      <trkpt lat="48.726" lon="7.18686">
        <ele>271.3</ele>
        <time>2023-11-03T12:08:30Z</time>
      </trkpt>
      <trkpt lat="48.72618" lon="7.18684">
        <ele>270</ele>
        <time>2023-11-03T12:08:35Z</time>
      </trkpt>
      <trkpt lat="48.72639" lon="7.18686">
        <ele>268.9</ele>
        <time>2023-11-03T12:08:41Z</time>
      </trkpt>
      <trkpt lat="48.72658" lon="7.18686">
        <ele>267.8</ele>
        <time>2023-11-03T12:08:46Z</time>
      </trkpt>
      <trkpt lat="48.72669" lon="7.18682">
        <ele>267.3</ele>
        <time>2023-11-03T12:08:49Z</time>
      </trkpt>
      <trkpt lat="48.72677" lon="7.18657">
        <ele>266.9</ele>
        <time>2023-11-03T12:08:54Z</time>
      </trkpt>
      <trkpt lat="48.7268" lon="7.1863">
        <ele>266.6</ele>
        <time>2023-11-03T12:08:59Z</time>
      </trkpt>
      <trkpt lat="48.72664" lon="7.18611">
        <ele>265.9</ele>
        <time>2023-11-03T12:09:06Z</time>
      </trkpt>
      <trkpt lat="48.72645" lon="7.18605">
        <ele>265.6</ele>
        <time>2023-11-03T12:09:12Z</time>
      </trkpt>
      <trkpt lat="48.72627" lon="7.18597">
        <ele>265.6</ele>
        <time>2023-11-03T12:09:18Z</time>
      </trkpt>
      <trkpt lat="48.72609" lon="7.18588">
        <ele>265.9</ele>
        <time>2023-11-03T12:09:24Z</time>
      </trkpt>
      <trkpt lat="48.72591" lon="7.18573">
        <ele>266.2</ele>
        <time>2023-11-03T12:09:31Z</time>
      </trkpt>
      <trkpt lat="48.72574" lon="7.18561">
        <ele>266.6</ele>
        <time>2023-11-03T12:09:37Z</time>
      </trkpt>
      <trkpt lat="48.72555" lon="7.18561">
        <ele>266.3</ele>
        <time>2023-11-03T12:09:44Z</time>
      </trkpt>
      <trkpt lat="48.72539" lon="7.18552">
        <ele>263.7</ele>
        <time>2023-11-03T12:09:50Z</time>
      </trkpt>
      <trkpt lat="48.72533" lon="7.18522">
        <ele>264.3</ele>
        <time>2023-11-03T12:09:56Z</time>
      </trkpt>
      <trkpt lat="48.72528" lon="7.18492">
        <ele>264.6</ele>
        <time>2023-11-03T12:10:02Z</time>
      </trkpt>
      <trkpt lat="48.72521" lon="7.18467">
        <ele>265</ele>
        <time>2023-11-03T12:10:08Z</time>
      </trkpt>
      <trkpt lat="48.72514" lon="7.18437">
        <ele>265.7</ele>
        <time>2023-11-03T12:10:15Z</time>
      </trkpt>
      <trkpt lat="48.72507" lon="7.18409">
        <ele>266.2</ele>
        <time>2023-11-03T12:10:22Z</time>
      </trkpt>
      <trkpt lat="48.72502" lon="7.18379">
        <ele>266.5</ele>
        <time>2023-11-03T12:10:28Z</time>
      </trkpt>
      <trkpt lat="48.72495" lon="7.1835">
        <ele>266.5</ele>
        <time>2023-11-03T12:10:34Z</time>
      </trkpt>
      <trkpt lat="48.72488" lon="7.18322">
        <ele>266.6</ele>
        <time>2023-11-03T12:10:40Z</time>
      </trkpt>
      <trkpt lat="48.72481" lon="7.18293">
        <ele>266.6</ele>
        <time>2023-11-03T12:10:46Z</time>
      </trkpt>
      <trkpt lat="48.72473" lon="7.18265">
        <ele>266.6</ele>
        <time>2023-11-03T12:10:52Z</time>
      </trkpt>
      <trkpt lat="48.72465" lon="7.18236">
        <ele>266.6</ele>
        <time>2023-11-03T12:10:58Z</time>
      </trkpt>
      <trkpt lat="48.72455" lon="7.18215">
        <ele>266.5</ele>
        <time>2023-11-03T12:11:04Z</time>
      </trkpt>
      <trkpt lat="48.72439" lon="7.18197">
        <ele>267.3</ele>
        <time>2023-11-03T12:11:11Z</time>
      </trkpt>
      <trkpt lat="48.72431" lon="7.18174">
        <ele>268.3</ele>
        <time>2023-11-03T12:11:18Z</time>
      </trkpt>
      <trkpt lat="48.72428" lon="7.18143">
        <ele>269.5</ele>
        <time>2023-11-03T12:11:25Z</time>
      </trkpt>
      <trkpt lat="48.72425" lon="7.18112">
        <ele>270.8</ele>
        <time>2023-11-03T12:11:32Z</time>
      </trkpt>
      <trkpt lat="48.72421" lon="7.18083">
        <ele>271.7</ele>
        <time>2023-11-03T12:11:38Z</time>
      </trkpt>
      <trkpt lat="48.72413" lon="7.18056">
        <ele>272.6</ele>
        <time>2023-11-03T12:11:44Z</time>
      </trkpt>
      <trkpt lat="48.72402" lon="7.18033">
        <ele>273.2</ele>
        <time>2023-11-03T12:11:50Z</time>
      </trkpt>
      <trkpt lat="48.72388" lon="7.18011">
        <ele>273.5</ele>
        <time>2023-11-03T12:11:56Z</time>
      </trkpt>
      <trkpt lat="48.72376" lon="7.1799">
        <ele>273.6</ele>
        <time>2023-11-03T12:12:02Z</time>
      </trkpt>
      <trkpt lat="48.72365" lon="7.17967">
        <ele>273.7</ele>
        <time>2023-11-03T12:12:08Z</time>
      </trkpt>
      <trkpt lat="48.72353" lon="7.17943">
        <ele>273.6</ele>
        <time>2023-11-03T12:12:14Z</time>
      </trkpt>
      <trkpt lat="48.72339" lon="7.17922">
        <ele>273.5</ele>
        <time>2023-11-03T12:12:20Z</time>
      </trkpt>
      <trkpt lat="48.7233" lon="7.17896">
        <ele>273.2</ele>
        <time>2023-11-03T12:12:26Z</time>
      </trkpt>
      <trkpt lat="48.72323" lon="7.17866">
        <ele>272.8</ele>
        <time>2023-11-03T12:12:32Z</time>
      </trkpt>
      <trkpt lat="48.72318" lon="7.17839">
        <ele>272.5</ele>
        <time>2023-11-03T12:12:37Z</time>
      </trkpt>
      <trkpt lat="48.72316" lon="7.17809">
        <ele>272.3</ele>
        <time>2023-11-03T12:12:43Z</time>
      </trkpt>
      <trkpt lat="48.72313" lon="7.1778">
        <ele>272.3</ele>
        <time>2023-11-03T12:12:49Z</time>
      </trkpt>
      <trkpt lat="48.72313" lon="7.17751">
        <ele>272.4</ele>
        <time>2023-11-03T12:12:55Z</time>
      </trkpt>
      <trkpt lat="48.72314" lon="7.17723">
        <ele>272.6</ele>
        <time>2023-11-03T12:13:01Z</time>
      </trkpt>
      <trkpt lat="48.7232" lon="7.17696">
        <ele>272.7</ele>
        <time>2023-11-03T12:13:07Z</time>
      </trkpt>
      <trkpt lat="48.72327" lon="7.17666">
        <ele>272.6</ele>
        <time>2023-11-03T12:13:13Z</time>
      </trkpt>
      <trkpt lat="48.72328" lon="7.17635">
        <ele>273.3</ele>
        <time>2023-11-03T12:13:19Z</time>
      </trkpt>
      <trkpt lat="48.72327" lon="7.17606">
        <ele>274.2</ele>
        <time>2023-11-03T12:13:25Z</time>
      </trkpt>
      <trkpt lat="48.72323" lon="7.17577">
        <ele>275.6</ele>
        <time>2023-11-03T12:13:31Z</time>
      </trkpt>
      <trkpt lat="48.7232" lon="7.17546">
        <ele>277.2</ele>
        <time>2023-11-03T12:13:39Z</time>
      </trkpt>
      <trkpt lat="48.72316" lon="7.17518">
        <ele>278.7</ele>
        <time>2023-11-03T12:13:48Z</time>
      </trkpt>
      <trkpt lat="48.72314" lon="7.1749">
        <ele>280.2</ele>
        <time>2023-11-03T12:13:56Z</time>
      </trkpt>
      <trkpt lat="48.72312" lon="7.1746">
        <ele>281.7</ele>
        <time>2023-11-03T12:14:05Z</time>
      </trkpt>
      <trkpt lat="48.72311" lon="7.17432">
        <ele>282.9</ele>
        <time>2023-11-03T12:14:11Z</time>
      </trkpt>
      <trkpt lat="48.7231" lon="7.17404">
        <ele>283.9</ele>
        <time>2023-11-03T12:14:17Z</time>
      </trkpt>
      <trkpt lat="48.72311" lon="7.17374">
        <ele>284.5</ele>
        <time>2023-11-03T12:14:23Z</time>
      </trkpt>
      <trkpt lat="48.72308" lon="7.17344">
        <ele>284.9</ele>
        <time>2023-11-03T12:14:29Z</time>
      </trkpt>
      <trkpt lat="48.72304" lon="7.17315">
        <ele>285.1</ele>
        <time>2023-11-03T12:14:35Z</time>
      </trkpt>
      <trkpt lat="48.72299" lon="7.17285">
        <ele>285.2</ele>
        <time>2023-11-03T12:14:42Z</time>
      </trkpt>
      <trkpt lat="48.72294" lon="7.17255">
        <ele>285.2</ele>
        <time>2023-11-03T12:14:48Z</time>
      </trkpt>
      <trkpt lat="48.72291" lon="7.17226">
        <ele>285.1</ele>
        <time>2023-11-03T12:14:54Z</time>
      </trkpt>
      <trkpt lat="48.72284" lon="7.17196">
        <ele>285.1</ele>
        <time>2023-11-03T12:15:00Z</time>
      </trkpt>
      <trkpt lat="48.72276" lon="7.17166">
        <ele>284.9</ele>
        <time>2023-11-03T12:15:06Z</time>
      </trkpt>
      <trkpt lat="48.72269" lon="7.17135">
        <ele>284.9</ele>
        <time>2023-11-03T12:15:12Z</time>
      </trkpt>
      <trkpt lat="48.72262" lon="7.17106">
        <ele>284.9</ele>
        <time>2023-11-03T12:15:18Z</time>
      </trkpt>
      <trkpt lat="48.72255" lon="7.17078">
        <ele>285</ele>
        <time>2023-11-03T12:15:24Z</time>
      </trkpt>
      <trkpt lat="48.72248" lon="7.17053">
        <ele>285</ele>
        <time>2023-11-03T12:15:29Z</time>
      </trkpt>
      <trkpt lat="48.72241" lon="7.17024">
        <ele>285.3</ele>
        <time>2023-11-03T12:15:35Z</time>
      </trkpt>
      <trkpt lat="48.72234" lon="7.16996">
        <ele>285.5</ele>
        <time>2023-11-03T12:15:41Z</time>
      </trkpt>
      <trkpt lat="48.72228" lon="7.16968">
        <ele>285.7</ele>
        <time>2023-11-03T12:15:47Z</time>
      </trkpt>
      <trkpt lat="48.72222" lon="7.16942">
        <ele>285.8</ele>
        <time>2023-11-03T12:15:53Z</time>
      </trkpt>
      <trkpt lat="48.72216" lon="7.16913">
        <ele>285.8</ele>
        <time>2023-11-03T12:15:59Z</time>
      </trkpt>
      <trkpt lat="48.7221" lon="7.16883">
        <ele>285.6</ele>
        <time>2023-11-03T12:16:05Z</time>
      </trkpt>
      <trkpt lat="48.72203" lon="7.16855">
        <ele>285.4</ele>
        <time>2023-11-03T12:16:11Z</time>
      </trkpt>
      <trkpt lat="48.72195" lon="7.16828">
        <ele>285.3</ele>
        <time>2023-11-03T12:16:17Z</time>
      </trkpt>
      <trkpt lat="48.72185" lon="7.16804">
        <ele>285.2</ele>
        <time>2023-11-03T12:16:23Z</time>
      </trkpt>
      <trkpt lat="48.72167" lon="7.16789">
        <ele>285.2</ele>
        <time>2023-11-03T12:16:30Z</time>
      </trkpt>
      <trkpt lat="48.72147" lon="7.1678">
        <ele>285.5</ele>
        <time>2023-11-03T12:16:37Z</time>
      </trkpt>
      <trkpt lat="48.7213" lon="7.16769">
        <ele>287.5</ele>
        <time>2023-11-03T12:16:43Z</time>
      </trkpt>
      <trkpt lat="48.72111" lon="7.16762">
        <ele>290.1</ele>
        <time>2023-11-03T12:16:50Z</time>
      </trkpt>
      <trkpt lat="48.72095" lon="7.16745">
        <ele>290.8</ele>
        <time>2023-11-03T12:16:58Z</time>
      </trkpt>
      <trkpt lat="48.72079" lon="7.1674">
        <ele>291.5</ele>
        <time>2023-11-03T12:17:07Z</time>
      </trkpt>
      <trkpt lat="48.72064" lon="7.16721">
        <ele>291.8</ele>
        <time>2023-11-03T12:17:14Z</time>
      </trkpt>
      <trkpt lat="48.7205" lon="7.16698">
        <ele>291.9</ele>
        <time>2023-11-03T12:17:21Z</time>
      </trkpt>
      <trkpt lat="48.72036" lon="7.16681">
        <ele>292.1</ele>
        <time>2023-11-03T12:17:27Z</time>
      </trkpt>
      <trkpt lat="48.72023" lon="7.1666">
        <ele>292.4</ele>
        <time>2023-11-03T12:17:33Z</time>
      </trkpt>
      <trkpt lat="48.72009" lon="7.16641">
        <ele>292.7</ele>
        <time>2023-11-03T12:17:39Z</time>
      </trkpt>
      <trkpt lat="48.71993" lon="7.16624">
        <ele>293</ele>
        <time>2023-11-03T12:17:45Z</time>
      </trkpt>
      <trkpt lat="48.71977" lon="7.16604">
        <ele>293.6</ele>
        <time>2023-11-03T12:17:51Z</time>
      </trkpt>
      <trkpt lat="48.71961" lon="7.16586">
        <ele>294.2</ele>
        <time>2023-11-03T12:17:57Z</time>
      </trkpt>
      <trkpt lat="48.71945" lon="7.16569">
        <ele>294.7</ele>
        <time>2023-11-03T12:18:03Z</time>
      </trkpt>
      <trkpt lat="48.71929" lon="7.16551">
        <ele>295.2</ele>
        <time>2023-11-03T12:18:09Z</time>
      </trkpt>
      <trkpt lat="48.71913" lon="7.16534">
        <ele>295.5</ele>
        <time>2023-11-03T12:18:15Z</time>
      </trkpt>
      <trkpt lat="48.71895" lon="7.16522">
        <ele>295.9</ele>
        <time>2023-11-03T12:18:21Z</time>
      </trkpt>
      <trkpt lat="48.71877" lon="7.16509">
        <ele>296.3</ele>
        <time>2023-11-03T12:18:27Z</time>
      </trkpt>
      <trkpt lat="48.7186" lon="7.16495">
        <ele>296.7</ele>
        <time>2023-11-03T12:18:33Z</time>
      </trkpt>
      <trkpt lat="48.71843" lon="7.16481">
        <ele>297.1</ele>
        <time>2023-11-03T12:18:39Z</time>
      </trkpt>
      <trkpt lat="48.71826" lon="7.16466">
        <ele>297.5</ele>
        <time>2023-11-03T12:18:45Z</time>
      </trkpt>
      <trkpt lat="48.71809" lon="7.16451">
        <ele>297.8</ele>
        <time>2023-11-03T12:18:51Z</time>
      </trkpt>
      <trkpt lat="48.71791" lon="7.16437">
        <ele>298.1</ele>
        <time>2023-11-03T12:18:57Z</time>
      </trkpt>
      <trkpt lat="48.71773" lon="7.16424">
        <ele>298</ele>
        <time>2023-11-03T12:19:03Z</time>
      </trkpt>
      <trkpt lat="48.71755" lon="7.16416">
        <ele>298.1</ele>
        <time>2023-11-03T12:19:09Z</time>
      </trkpt>
      <trkpt lat="48.71735" lon="7.16415">
        <ele>298.4</ele>
        <time>2023-11-03T12:19:16Z</time>
      </trkpt>
      <trkpt lat="48.71716" lon="7.1641">
        <ele>298.8</ele>
        <time>2023-11-03T12:19:22Z</time>
      </trkpt>
      <trkpt lat="48.71696" lon="7.16402">
        <ele>299.1</ele>
        <time>2023-11-03T12:19:28Z</time>
      </trkpt>
      <trkpt lat="48.71676" lon="7.16394">
        <ele>299.5</ele>
        <time>2023-11-03T12:19:34Z</time>
      </trkpt>
      <trkpt lat="48.71657" lon="7.16389">
        <ele>300</ele>
        <time>2023-11-03T12:19:40Z</time>
      </trkpt>
      <trkpt lat="48.71638" lon="7.16381">
        <ele>300.5</ele>
        <time>2023-11-03T12:19:46Z</time>
      </trkpt>
      <trkpt lat="48.71619" lon="7.16373">
        <ele>301.1</ele>
        <time>2023-11-03T12:19:52Z</time>
      </trkpt>
      <trkpt lat="48.716" lon="7.16368">
        <ele>301.5</ele>
        <time>2023-11-03T12:19:58Z</time>
      </trkpt>
      <trkpt lat="48.71581" lon="7.16366">
        <ele>302.1</ele>
        <time>2023-11-03T12:20:04Z</time>
      </trkpt>
      <trkpt lat="48.71562" lon="7.16367">
        <ele>302.4</ele>
        <time>2023-11-03T12:20:10Z</time>
      </trkpt>
      <trkpt lat="48.71544" lon="7.16371">
        <ele>302.8</ele>
        <time>2023-11-03T12:20:16Z</time>
      </trkpt>
      <trkpt lat="48.71526" lon="7.16378">
        <ele>303.4</ele>
        <time>2023-11-03T12:20:22Z</time>
      </trkpt>
      <trkpt lat="48.71509" lon="7.1639">
        <ele>304.1</ele>
        <time>2023-11-03T12:20:28Z</time>
      </trkpt>
      <trkpt lat="48.71492" lon="7.16402">
        <ele>304.8</ele>
        <time>2023-11-03T12:20:34Z</time>
      </trkpt>
      <trkpt lat="48.71474" lon="7.16406">
        <ele>305.6</ele>
        <time>2023-11-03T12:20:40Z</time>
      </trkpt>
      <trkpt lat="48.71455" lon="7.16407">
        <ele>306.6</ele>
        <time>2023-11-03T12:20:46Z</time>
      </trkpt>
      <trkpt lat="48.71435" lon="7.16405">
        <ele>307.7</ele>
        <time>2023-11-03T12:20:52Z</time>
      </trkpt>
      <trkpt lat="48.71417" lon="7.16402">
        <ele>308.6</ele>
        <time>2023-11-03T12:20:58Z</time>
      </trkpt>
      <trkpt lat="48.71397" lon="7.16396">
        <ele>309.6</ele>
        <time>2023-11-03T12:21:05Z</time>
      </trkpt>
      <trkpt lat="48.71378" lon="7.16388">
        <ele>310.3</ele>
        <time>2023-11-03T12:21:11Z</time>
      </trkpt>
      <trkpt lat="48.71359" lon="7.16382">
        <ele>310.9</ele>
        <time>2023-11-03T12:21:18Z</time>
      </trkpt>
      <trkpt lat="48.71341" lon="7.16373">
        <ele>311.3</ele>
        <time>2023-11-03T12:21:24Z</time>
      </trkpt>
      <trkpt lat="48.71321" lon="7.16365">
        <ele>311.6</ele>
        <time>2023-11-03T12:21:30Z</time>
      </trkpt>
      <trkpt lat="48.71304" lon="7.16354">
        <ele>311.8</ele>
        <time>2023-11-03T12:21:35Z</time>
      </trkpt>
      <trkpt lat="48.71284" lon="7.1634">
        <ele>312</ele>
        <time>2023-11-03T12:21:41Z</time>
      </trkpt>
      <trkpt lat="48.71268" lon="7.16326">
        <ele>312.2</ele>
        <time>2023-11-03T12:21:46Z</time>
      </trkpt>
      <trkpt lat="48.71251" lon="7.1631">
        <ele>312.5</ele>
        <time>2023-11-03T12:21:52Z</time>
      </trkpt>
      <trkpt lat="48.71233" lon="7.16292">
        <ele>312.9</ele>
        <time>2023-11-03T12:21:58Z</time>
      </trkpt>
      <trkpt lat="48.71217" lon="7.16275">
        <ele>313.4</ele>
        <time>2023-11-03T12:22:04Z</time>
      </trkpt>
      <trkpt lat="48.712" lon="7.16261">
        <ele>314.1</ele>
        <time>2023-11-03T12:22:10Z</time>
      </trkpt>
      <trkpt lat="48.71181" lon="7.16257">
        <ele>315.1</ele>
        <time>2023-11-03T12:22:17Z</time>
      </trkpt>
      <trkpt lat="48.71162" lon="7.16266">
        <ele>316.1</ele>
        <time>2023-11-03T12:22:24Z</time>
      </trkpt>
      <trkpt lat="48.71147" lon="7.16277">
        <ele>316.9</ele>
        <time>2023-11-03T12:22:30Z</time>
      </trkpt>
    </trkseg>
  </trk>
</gpx>